Time;durP1;ratioP1;P1;durP2;ratioP2;P2;SDS_P1;SDS_P2;PMS_P1;PMS_P2;Temp;Humidity;BMP_temperature;BMP_pressure;BME280_temperature;BME280_humidity;BME280_pressure;Samples;Min_cycle;Max_cycle;Signal;HPM_P1;HPM_P2
2023/08/22 00:00:53;;;;;;;1999.90;999.90;;;22.10;76.20;;;;;;5080181;28;20024;-71
2023/08/22 00:03:19;;;;;;;1999.90;999.90;;;22.20;76.20;;;;;;5080823;28;20532;-71
2023/08/22 00:05:44;;;;;;;1999.90;999.90;;;22.20;76.30;;;;;;5083436;28;20478;-72
2023/08/22 00:08:10;;;;;;;1999.90;999.90;;;22.30;76.10;;;;;;5082312;28;20032;-71
2023/08/22 00:10:36;;;;;;;1999.90;999.90;;;22.20;76.00;;;;;;5081328;28;20028;-71
2023/08/22 00:13:03;;;;;;;1999.90;999.90;;;22.10;76.40;;;;;;5081087;28;20051;-71
2023/08/22 00:15:29;;;;;;;1999.90;999.90;;;22.10;76.40;;;;;;5079511;28;20075;-71
2023/08/22 00:17:55;;;;;;;1999.90;999.90;;;22.20;76.20;;;;;;5074605;28;20399;-71
2023/08/22 00:20:22;;;;;;;1999.90;999.90;;;22.20;75.90;;;;;;5079175;28;20107;-71
2023/08/22 00:22:48;;;;;;;1999.90;999.90;;;22.20;76.00;;;;;;5085020;28;20029;-72
2023/08/22 00:25:13;;;;;;;1999.90;999.90;;;22.10;75.90;;;;;;5082246;28;20021;-71
2023/08/22 00:27:39;;;;;;;1999.90;999.90;;;22.20;75.90;;;;;;5083003;28;20134;-71
2023/08/22 00:30:05;;;;;;;1999.90;999.90;;;22.10;75.90;;;;;;5079578;28;20073;-72
2023/08/22 00:32:31;;;;;;;1999.90;999.90;;;22.10;75.90;;;;;;5084458;28;20035;-72
2023/08/22 00:34:57;;;;;;;1999.90;999.90;;;22.10;75.70;;;;;;5082053;28;20055;-72
2023/08/22 00:37:23;;;;;;;1999.90;999.90;;;22.10;75.30;;;;;;5078970;28;20089;-72
2023/08/22 00:39:49;;;;;;;1999.90;999.90;;;22.10;75.10;;;;;;5081630;28;20486;-71
2023/08/22 00:42:15;;;;;;;1999.90;999.90;;;22.20;75.00;;;;;;5078257;28;20032;-71
2023/08/22 00:44:40;;;;;;;1999.90;999.90;;;22.20;75.00;;;;;;5067238;28;20035;-72
2023/08/22 00:47:06;;;;;;;1999.90;999.90;;;22.10;74.80;;;;;;5085890;28;20082;-72
2023/08/22 00:49:33;;;;;;;1999.90;999.90;;;22.10;75.00;;;;;;5084249;28;20041;-71
2023/08/22 00:52:01;;;;;;;1999.90;999.90;;;22.00;75.40;;;;;;5085651;28;20492;-72
2023/08/22 00:54:30;;;;;;;1999.90;999.90;;;21.90;76.10;;;;;;5084944;28;20032;-72
2023/08/22 00:56:57;;;;;;;1999.90;999.90;;;21.80;76.20;;;;;;5085451;28;20076;-72
2023/08/22 00:59:27;;;;;;;1999.90;999.90;;;21.80;76.30;;;;;;5080862;28;20361;-71
2023/08/22 01:01:53;;;;;;;1999.90;999.90;;;21.70;76.60;;;;;;5082024;28;20096;-72
2023/08/22 01:04:19;;;;;;;1999.90;999.90;;;21.70;77.40;;;;;;5083294;28;20039;-72
2023/08/22 01:06:49;;;;;;;1999.90;999.90;;;21.50;77.00;;;;;;5082284;28;20066;-72
2023/08/22 01:09:30;;;;;;;1999.90;999.90;;;21.60;76.80;;;;;;5083490;28;20067;-72
2023/08/22 01:12:12;;;;;;;1999.90;999.90;;;21.40;77.70;;;;;;5086036;28;20447;-72
2023/08/22 01:14:44;;;;;;;1999.90;999.90;;;21.40;77.90;;;;;;5086551;28;20039;-72
2023/08/22 01:17:13;;;;;;;1999.90;999.90;;;21.30;78.20;;;;;;5083699;28;20502;-72
2023/08/22 01:19:39;;;;;;;1999.90;999.90;;;21.20;78.70;;;;;;5084616;28;20039;-71
2023/08/22 01:22:04;;;;;;;1999.90;999.90;;;21.00;79.20;;;;;;5081589;28;20028;-71
2023/08/22 01:24:30;;;;;;;1999.90;999.90;;;20.90;79.60;;;;;;5086978;28;20436;-71
2023/08/22 01:26:56;;;;;;;1999.90;999.90;;;20.90;79.70;;;;;;5083424;28;20139;-71
2023/08/22 01:29:34;;;;;;;1999.90;999.90;;;20.80;80.00;;;;;;5086301;28;20418;-71
2023/08/22 01:32:12;;;;;;;1999.90;999.90;;;20.60;80.30;;;;;;5087544;28;20040;-71
2023/08/22 01:34:40;;;;;;;1999.90;999.90;;;20.60;80.60;;;;;;5083611;28;20773;-71
2023/08/22 01:37:09;;;;;;;1999.90;999.90;;;20.50;81.20;;;;;;5087426;28;20050;-71
2023/08/22 01:39:37;;;;;;;1999.90;999.90;;;20.50;81.20;;;;;;5088738;28;20111;-71
2023/08/22 01:42:05;;;;;;;1999.90;999.90;;;20.60;80.70;;;;;;5086268;28;20939;-71
2023/08/22 01:44:30;;;;;;;1999.90;999.90;;;20.60;80.70;;;;;;5087013;28;20031;-72
2023/08/22 01:46:56;;;;;;;1999.90;999.90;;;20.50;81.10;;;;;;5086454;28;20574;-72
2023/08/22 01:49:22;;;;;;;1999.90;999.90;;;20.50;81.20;;;;;;5087832;28;20767;-72
2023/08/22 01:51:47;;;;;;;1999.90;999.90;;;20.50;81.40;;;;;;5084023;28;20511;-71
2023/08/22 01:54:14;;;;;;;1999.90;999.90;;;20.40;81.80;;;;;;5085225;28;20044;-71
2023/08/22 01:56:39;;;;;;;1999.90;999.90;;;20.50;82.40;;;;;;5087442;28;20032;-72
2023/08/22 01:59:05;;;;;;;1999.90;999.90;;;20.40;82.20;;;;;;5085943;28;20719;-71
2023/08/22 02:01:31;;;;;;;1999.90;999.90;;;20.40;83.20;;;;;;5088572;28;20024;-71
2023/08/22 02:04:01;;;;;;;1999.90;999.90;;;20.40;83.40;;;;;;5084355;28;20024;-71
2023/08/22 02:06:27;;;;;;;1999.90;999.90;;;20.30;84.60;;;;;;5084289;28;20029;-72
2023/08/22 02:08:53;;;;;;;1999.90;999.90;;;20.30;84.90;;;;;;5087351;28;20478;-72
2023/08/22 02:11:19;;;;;;;1999.90;999.90;;;20.20;85.10;;;;;;5087312;28;20039;-71
2023/08/22 02:13:44;;;;;;;1999.90;999.90;;;20.20;85.10;;;;;;5089431;28;20035;-72
2023/08/22 02:16:10;;;;;;;1999.90;999.90;;;20.10;85.00;;;;;;5085413;28;20484;-71
2023/08/22 02:18:36;;;;;;;1999.90;999.90;;;20.10;85.20;;;;;;5086886;28;20473;-71
2023/08/22 02:21:02;;;;;;;1999.90;999.90;;;20.10;85.10;;;;;;5085878;28;20402;-71
2023/08/22 02:23:28;;;;;;;1999.90;999.90;;;20.10;85.30;;;;;;5084999;28;20107;-72
2023/08/22 02:25:53;;;;;;;1999.90;999.90;;;20.10;85.50;;;;;;5088483;28;20450;-71
2023/08/22 02:28:19;;;;;;;1999.90;999.90;;;20.00;85.40;;;;;;5085274;28;20165;-71
2023/08/22 02:30:45;;;;;;;1999.90;999.90;;;20.00;85.20;;;;;;5082434;28;20043;-71
2023/08/22 02:33:10;;;;;;;1999.90;999.90;;;20.00;84.70;;;;;;5083394;28;20047;-71
2023/08/22 02:35:36;;;;;;;1999.90;999.90;;;19.90;84.50;;;;;;5083935;28;20062;-71
2023/08/22 02:38:01;;;;;;;1999.90;999.90;;;19.80;84.50;;;;;;5085802;28;20054;-71
2023/08/22 02:40:27;;;;;;;1999.90;999.90;;;19.80;85.00;;;;;;5079756;28;20119;-71
2023/08/22 02:42:53;;;;;;;1999.90;999.90;;;19.80;85.00;;;;;;5068840;28;20036;-71
2023/08/22 02:45:18;;;;;;;1999.90;999.90;;;19.90;85.00;;;;;;5085629;28;20033;-71
2023/08/22 02:47:44;;;;;;;1999.90;999.90;;;19.90;85.30;;;;;;5088494;28;20036;-71
2023/08/22 02:50:10;;;;;;;1999.90;999.90;;;19.70;86.10;;;;;;5084510;28;20060;-71
2023/08/22 02:52:35;;;;;;;1999.90;999.90;;;19.70;86.60;;;;;;5089844;28;20410;-71
2023/08/22 02:55:01;;;;;;;1999.90;999.90;;;19.70;86.90;;;;;;5087671;28;20432;-72
2023/08/22 02:57:27;;;;;;;1999.90;999.90;;;19.70;87.00;;;;;;5086146;28;20036;-71
2023/08/22 02:59:52;;;;;;;1999.90;999.90;;;19.70;87.90;;;;;;5083485;28;20167;-72
2023/08/22 03:02:18;;;;;;;1999.90;999.90;;;19.70;87.90;;;;;;5084961;28;20516;-71
2023/08/22 03:04:44;;;;;;;1999.90;999.90;;;19.60;87.70;;;;;;5085595;28;20032;-71
2023/08/22 03:07:10;;;;;;;1999.90;999.90;;;19.70;87.40;;;;;;5086269;28;20024;-71
2023/08/22 03:09:38;;;;;;;1999.90;999.90;;;19.60;87.10;;;;;;5084992;28;20273;-71
2023/08/22 03:12:04;;;;;;;1999.90;999.90;;;19.50;86.90;;;;;;5084014;28;20036;-71
2023/08/22 03:14:30;;;;;;;1999.90;999.90;;;19.50;86.90;;;;;;5085898;28;20029;-72
2023/08/22 03:16:56;;;;;;;1999.90;999.90;;;19.60;87.20;;;;;;5081982;28;20622;-72
2023/08/22 03:19:21;;;;;;;1999.90;999.90;;;19.60;87.60;;;;;;5083698;28;20047;-71
2023/08/22 03:21:47;;;;;;;1999.90;999.90;;;19.50;87.90;;;;;;5083791;28;20039;-71
2023/08/22 03:24:13;;;;;;;1999.90;999.90;;;19.50;88.10;;;;;;5081678;28;20028;-71
2023/08/22 03:26:38;;;;;;;1999.90;999.90;;;19.40;87.90;;;;;;5085375;28;20048;-72
2023/08/22 03:29:04;;;;;;;1999.90;999.90;;;19.40;88.20;;;;;;5084945;28;20054;-71
2023/08/22 03:31:29;;;;;;;1999.90;999.90;;;19.40;88.20;;;;;;5051683;28;20140;-71
2023/08/22 03:33:55;;;;;;;1999.90;999.90;;;19.40;87.90;;;;;;5084359;28;20033;-71
2023/08/22 03:36:21;;;;;;;1999.90;999.90;;;19.40;87.20;;;;;;5083557;28;20039;-71
2023/08/22 03:38:50;;;;;;;1999.90;999.90;;;19.30;87.50;;;;;;5086678;28;20027;-71
2023/08/22 03:41:19;;;;;;;1999.90;999.90;;;19.10;88.20;;;;;;5084414;28;20462;-71
2023/08/22 03:43:45;;;;;;;1999.90;999.90;;;19.10;88.10;;;;;;5086841;28;20478;-71
2023/08/22 03:46:11;;;;;;;1999.90;999.90;;;19.20;88.00;;;;;;5069961;28;20045;-71
2023/08/22 03:48:36;;;;;;;1999.90;999.90;;;19.20;87.50;;;;;;5083598;28;20024;-71
2023/08/22 03:51:06;;;;;;;1999.90;999.90;;;19.10;87.90;;;;;;5081858;28;20036;-72
2023/08/22 03:53:33;;;;;;;1999.90;999.90;;;19.10;88.30;;;;;;5086034;28;20081;-72
2023/08/22 03:55:59;;;;;;;1999.90;999.90;;;19.00;88.80;;;;;;5084210;28;20070;-71
2023/08/22 03:58:25;;;;;;;1999.90;999.90;;;19.00;88.60;;;;;;5082066;28;20032;-71
2023/08/22 04:00:53;;;;;;;1999.90;999.90;;;19.10;88.30;;;;;;5084147;28;20028;-71
2023/08/22 04:03:18;;;;;;;1999.90;999.90;;;18.90;88.70;;;;;;5078378;28;20034;-71
2023/08/22 04:05:44;;;;;;;1999.90;999.90;;;19.00;88.50;;;;;;5085722;28;20456;-71
2023/08/22 04:08:10;;;;;;;1999.90;999.90;;;19.00;89.00;;;;;;5084450;28;20059;-72
2023/08/22 04:10:35;;;;;;;1999.90;999.90;;;19.00;88.90;;;;;;5079507;28;20115;-71
2023/08/22 04:13:01;;;;;;;1999.90;999.90;;;18.90;89.40;;;;;;5083720;28;20171;-71
2023/08/22 04:15:27;;;;;;;1999.90;999.90;;;18.90;89.30;;;;;;5085805;28;20035;-71
2023/08/22 04:17:52;;;;;;;1999.90;999.90;;;18.90;89.40;;;;;;5081418;28;20040;-71
2023/08/22 04:20:18;;;;;;;1999.90;999.90;;;18.90;89.80;;;;;;5084504;28;20110;-71
2023/08/22 04:22:43;;;;;;;1999.90;999.90;;;18.90;90.00;;;;;;5081352;28;20034;-71
2023/08/22 04:25:10;;;;;;;1999.90;999.90;;;18.90;90.00;;;;;;5076935;28;20040;-72
2023/08/22 04:27:36;;;;;;;1999.90;999.90;;;18.90;89.80;;;;;;5074009;28;20052;-71
2023/08/22 04:30:02;;;;;;;1999.90;999.90;;;18.90;90.00;;;;;;5085327;28;20098;-71
2023/08/22 04:32:28;;;;;;;1999.90;999.90;;;18.80;90.10;;;;;;5077688;28;20032;-71
2023/08/22 04:34:54;;;;;;;1999.90;999.90;;;18.90;90.00;;;;;;5077000;28;20434;-71
2023/08/22 04:37:20;;;;;;;1999.90;999.90;;;19.00;89.60;;;;;;5074058;28;20573;-71
2023/08/22 04:39:46;;;;;;;1999.90;999.90;;;18.90;89.40;;;;;;5080968;28;20445;-72
2023/08/22 04:42:11;;;;;;;1999.90;999.90;;;18.90;89.10;;;;;;5081296;28;20115;-71
2023/08/22 04:44:38;;;;;;;1999.90;999.90;;;18.80;89.30;;;;;;5080595;28;20271;-71
2023/08/22 04:47:04;;;;;;;1999.90;999.90;;;18.90;89.90;;;;;;5083342;28;20036;-71
2023/08/22 04:49:30;;;;;;;1999.90;999.90;;;18.90;89.40;;;;;;5080758;28;20525;-71
2023/08/22 04:51:55;;;;;;;1999.90;999.90;;;18.90;89.10;;;;;;5085133;28;20038;-71
2023/08/22 04:54:22;;;;;;;1999.90;999.90;;;18.90;89.40;;;;;;5086905;28;20063;-71
2023/08/22 04:56:48;;;;;;;1999.90;999.90;;;18.80;89.50;;;;;;5082449;28;20040;-71
2023/08/22 04:59:14;;;;;;;1999.90;999.90;;;18.80;89.40;;;;;;5081888;28;20494;-70
2023/08/22 05:01:39;;;;;;;1999.90;999.90;;;19.00;90.00;;;;;;5082769;28;20038;-71
2023/08/22 05:04:05;;;;;;;1999.90;999.90;;;19.00;90.00;;;;;;5088705;28;20028;-71
2023/08/22 05:06:30;;;;;;;1999.90;999.90;;;19.10;89.80;;;;;;5091060;28;20032;-71
2023/08/22 05:08:56;;;;;;;1999.90;999.90;;;19.10;89.90;;;;;;5086817;28;20060;-71
2023/08/22 05:11:22;;;;;;;1999.90;999.90;;;19.20;89.60;;;;;;5086304;28;20070;-71
2023/08/22 05:13:47;;;;;;;1999.90;999.90;;;19.30;89.40;;;;;;5085324;28;20376;-71
2023/08/22 05:16:13;;;;;;;1999.90;999.90;;;19.40;89.00;;;;;;5085288;28;20028;-71
2023/08/22 05:18:39;;;;;;;1999.90;999.90;;;19.50;88.70;;;;;;5084326;28;20028;-71
2023/08/22 05:21:04;;;;;;;1999.90;999.90;;;19.60;88.70;;;;;;5086986;28;20394;-71
2023/08/22 05:23:30;;;;;;;1999.90;999.90;;;19.60;88.20;;;;;;5083761;28;20687;-71
2023/08/22 05:25:56;;;;;;;1999.90;999.90;;;19.70;88.10;;;;;;5088240;28;20602;-71
2023/08/22 05:28:22;;;;;;;1999.90;999.90;;;19.70;87.50;;;;;;5086334;28;20079;-72
2023/08/22 05:30:47;;;;;;;1999.90;999.90;;;19.80;87.40;;;;;;5088478;28;20040;-71
2023/08/22 05:33:13;;;;;;;1999.90;999.90;;;19.90;87.30;;;;;;5084502;28;20032;-71
2023/08/22 05:35:38;;;;;;;1999.90;999.90;;;19.90;87.30;;;;;;5072267;28;20040;-72
2023/08/22 05:38:04;;;;;;;1999.90;999.90;;;19.90;86.90;;;;;;5083817;28;20085;-72
2023/08/22 05:40:30;;;;;;;1999.90;999.90;;;20.00;86.70;;;;;;5080535;28;20032;-71
2023/08/22 05:42:56;;;;;;;1999.90;999.90;;;20.20;86.50;;;;;;5085022;28;20036;-71
2023/08/22 05:45:22;;;;;;;1999.90;999.90;;;20.20;86.20;;;;;;5084358;28;20482;-72
2023/08/22 05:47:47;;;;;;;1999.90;999.90;;;20.20;86.30;;;;;;5085364;28;20037;-72
2023/08/22 05:50:13;;;;;;;1999.90;999.90;;;20.30;86.60;;;;;;5081602;28;20055;-71
2023/08/22 05:52:39;;;;;;;1999.90;999.90;;;20.40;85.80;;;;;;5086572;28;20032;-71
2023/08/22 05:55:06;;;;;;;1999.90;999.90;;;20.50;85.70;;;;;;5087874;28;20103;-71
2023/08/22 05:57:32;;;;;;;1999.90;999.90;;;20.50;85.60;;;;;;5084485;28;20513;-75
2023/08/22 05:59:58;;;;;;;1999.90;999.90;;;20.60;85.80;;;;;;5086608;28;20117;-73
2023/08/22 06:02:24;;;;;;;1999.90;999.90;;;20.70;86.20;;;;;;5089195;28;20546;-72
2023/08/22 06:04:50;;;;;;;1999.90;999.90;;;20.70;85.80;;;;;;5084780;28;20028;-73
2023/08/22 06:07:15;;;;;;;1999.90;999.90;;;20.80;85.70;;;;;;5082350;28;20567;-73
2023/08/22 06:09:41;;;;;;;1999.90;999.90;;;20.90;85.10;;;;;;5084547;28;20032;-73
2023/08/22 06:12:08;;;;;;;1999.90;999.90;;;21.00;84.50;;;;;;5079776;28;20100;-73
2023/08/22 06:14:33;;;;;;;1999.90;999.90;;;21.00;84.30;;;;;;5085503;28;20043;-73
2023/08/22 06:16:59;;;;;;;1999.90;999.90;;;21.10;84.50;;;;;;5084749;28;20028;-73
2023/08/22 06:19:25;;;;;;;1999.90;999.90;;;21.20;84.80;;;;;;5079510;28;20032;-71
2023/08/22 06:21:50;;;;;;;1999.90;999.90;;;21.30;84.60;;;;;;5086745;28;20017;-72
2023/08/22 06:24:16;;;;;;;1999.90;999.90;;;21.40;84.70;;;;;;5084374;28;20036;-73
2023/08/22 06:26:42;;;;;;;1999.90;999.90;;;21.50;84.50;;;;;;5084300;28;20502;-73
2023/08/22 06:29:11;;;;;;;1999.90;999.90;;;21.50;83.10;;;;;;5086161;28;20078;-72
2023/08/22 06:31:36;;;;;;;1999.90;999.90;;;21.70;82.70;;;;;;5082759;28;20036;-73
2023/08/22 06:34:02;;;;;;;1999.90;999.90;;;21.80;83.80;;;;;;5084817;28;20115;-73
2023/08/22 06:36:28;;;;;;;1999.90;999.90;;;21.70;83.50;;;;;;5085858;28;20109;-73
2023/08/22 06:38:53;;;;;;;1999.90;999.90;;;21.90;82.40;;;;;;5072418;28;20115;-72
2023/08/22 06:41:20;;;;;;;1999.90;999.90;;;22.00;82.00;;;;;;5084715;28;20502;-73
2023/08/22 06:43:46;;;;;;;1999.90;999.90;;;22.20;81.80;;;;;;5083436;28;20024;-73
2023/08/22 06:46:12;;;;;;;1999.90;999.90;;;22.30;81.30;;;;;;5079764;28;20077;-73
2023/08/22 06:48:37;;;;;;;1999.90;999.90;;;22.40;81.20;;;;;;5084444;28;20230;-73
2023/08/22 06:51:03;;;;;;;1999.90;999.90;;;22.40;80.50;;;;;;5082736;28;20033;-73
2023/08/22 06:53:29;;;;;;;1999.90;999.90;;;22.40;80.70;;;;;;5083729;28;20036;-73
2023/08/22 06:55:56;;;;;;;1999.90;999.90;;;22.50;80.80;;;;;;5086838;28;20028;-73
2023/08/22 06:58:22;;;;;;;1999.90;999.90;;;22.60;79.60;;;;;;5082726;28;20155;-73
2023/08/22 07:00:48;;;;;;;1999.90;999.90;;;22.80;79.30;;;;;;5083262;28;20504;-74
2023/08/22 07:03:14;;;;;;;1999.90;999.90;;;23.00;78.40;;;;;;5085530;28;20032;-73
2023/08/22 07:05:40;;;;;;;1999.90;999.90;;;23.20;78.60;;;;;;5081468;28;20511;-73
2023/08/22 07:08:07;;;;;;;1999.90;999.90;;;23.10;78.50;;;;;;5078893;28;20131;-73
2023/08/22 07:10:34;;;;;;;1999.90;999.90;;;23.40;77.30;;;;;;5085976;28;20031;-74
2023/08/22 07:13:00;;;;;;;1999.90;999.90;;;23.50;78.60;;;;;;5080339;28;20036;-77
2023/08/22 07:15:26;;;;;;;1999.90;999.90;;;23.40;77.40;;;;;;5084033;28;20078;-76
2023/08/22 07:17:51;;;;;;;1999.90;999.90;;;23.60;77.30;;;;;;5083646;28;20036;-76
2023/08/22 07:20:17;;;;;;;1999.90;999.90;;;23.80;76.30;;;;;;5084470;28;20040;-76
2023/08/22 07:22:44;;;;;;;1999.90;999.90;;;23.80;73.50;;;;;;5082481;28;20024;-78
2023/08/22 07:25:10;;;;;;;1999.90;999.90;;;23.90;74.50;;;;;;5081589;28;21351;-78
2023/08/22 07:27:36;;;;;;;1999.90;999.90;;;24.10;73.50;;;;;;5083832;28;20066;-77
2023/08/22 07:30:03;;;;;;;1999.90;999.90;;;24.10;73.50;;;;;;5086886;28;20383;-77
2023/08/22 07:32:29;;;;;;;1999.90;999.90;;;24.10;73.30;;;;;;5080862;28;20039;-76
2023/08/22 07:35:11;;;;;;;1999.90;999.90;;;24.40;73.00;;;;;;5087551;28;20028;-76
2023/08/22 07:37:37;;;;;;;1999.90;999.90;;;24.60;72.70;;;;;;5083470;28;20033;-77
2023/08/22 07:40:04;;;;;;;1999.90;999.90;;;24.80;71.90;;;;;;5076815;28;20399;-76
2023/08/22 07:42:30;;;;;;;1999.90;999.90;;;24.70;72.80;;;;;;5085212;28;20332;-75
2023/08/22 07:44:56;;;;;;;1999.90;999.90;;;24.90;71.50;;;;;;5081165;28;20034;-73
2023/08/22 07:47:21;;;;;;;1999.90;999.90;;;24.90;69.90;;;;;;5077965;28;20042;-74
2023/08/22 07:49:47;;;;;;;1999.90;999.90;;;24.90;70.90;;;;;;5074563;28;20038;-73
2023/08/22 07:52:13;;;;;;;1999.90;999.90;;;25.00;71.00;;;;;;5079377;28;20043;-72
2023/08/22 07:54:38;;;;;;;1999.90;999.90;;;25.20;69.40;;;;;;5080834;28;20059;-72
2023/08/22 07:57:04;;;;;;;1999.90;999.90;;;25.10;71.00;;;;;;5081384;28;20043;-72
2023/08/22 07:59:29;;;;;;;1999.90;999.90;;;25.30;70.30;;;;;;5084262;28;20035;-72
2023/08/22 08:01:55;;;;;;;1999.90;999.90;;;25.50;68.80;;;;;;5080904;28;20062;-74
2023/08/22 08:04:21;;;;;;;1999.90;999.90;;;25.30;69.00;;;;;;5082966;28;20642;-74
2023/08/22 08:06:47;;;;;;;1999.90;999.90;;;25.50;68.50;;;;;;5081870;28;20036;-74
2023/08/22 08:09:13;;;;;;;1999.90;999.90;;;25.70;68.10;;;;;;5067677;28;20047;-74
2023/08/22 08:11:38;;;;;;;1999.90;999.90;;;25.90;67.10;;;;;;5082458;28;20028;-73
2023/08/22 08:14:04;;;;;;;1999.90;999.90;;;26.10;66.50;;;;;;5080318;28;20422;-73
2023/08/22 08:16:31;;;;;;;1999.90;999.90;;;26.20;67.80;;;;;;5085414;28;20455;-73
2023/08/22 08:18:57;;;;;;;1999.90;999.90;;;26.40;66.10;;;;;;5077776;28;20036;-73
2023/08/22 08:21:23;;;;;;;1999.90;999.90;;;26.40;66.90;;;;;;5085736;28;20129;-73
2023/08/22 08:23:48;;;;;;;1999.90;999.90;;;26.70;68.50;;;;;;5078120;28;20059;-73
2023/08/22 08:26:14;;;;;;;1999.90;999.90;;;26.80;66.30;;;;;;5082075;28;20081;-73
2023/08/22 08:28:40;;;;;;;1999.90;999.90;;;27.20;65.90;;;;;;5082446;28;20401;-73
2023/08/22 08:31:06;;;;;;;1999.90;999.90;;;27.20;62.50;;;;;;5078449;28;20090;-72
2023/08/22 08:33:32;;;;;;;1999.90;999.90;;;27.10;64.90;;;;;;5080643;28;20024;-72
2023/08/22 08:35:58;;;;;;;1999.90;999.90;;;27.50;63.40;;;;;;5082066;28;20103;-72
2023/08/22 08:38:23;;;;;;;1999.90;999.90;;;27.60;61.30;;;;;;5089112;28;20039;-72
2023/08/22 08:40:49;;;;;;;1999.90;999.90;;;27.50;64.00;;;;;;5085091;28;20082;-72
2023/08/22 08:43:15;;;;;;;1999.90;999.90;;;27.60;60.20;;;;;;5090473;28;20043;-72
2023/08/22 08:45:41;;;;;;;1999.90;999.90;;;27.60;60.10;;;;;;5084185;28;20641;-73
2023/08/22 08:48:07;;;;;;;1999.90;999.90;;;27.90;59.00;;;;;;5090824;28;20036;-73
2023/08/22 08:50:36;;;;;;;1999.90;999.90;;;28.00;58.00;;;;;;5089599;28;20052;-73
2023/08/22 08:53:02;;;;;;;1999.90;999.90;;;27.70;60.10;;;;;;5085770;28;20087;-73
2023/08/22 08:55:28;;;;;;;1999.90;999.90;;;28.00;60.00;;;;;;5085095;28;20031;-73
2023/08/22 08:57:55;;;;;;;1999.90;999.90;;;28.20;59.30;;;;;;5082470;28;20028;-74
2023/08/22 09:00:21;;;;;;;1999.90;999.90;;;28.30;58.00;;;;;;5085614;28;20035;-74
2023/08/22 09:02:47;;;;;;;1999.90;999.90;;;28.40;56.30;;;;;;5087920;28;20032;-75
2023/08/22 09:05:12;;;;;;;1999.90;999.90;;;28.70;59.90;;;;;;5087926;28;20101;-75
2023/08/22 09:07:38;;;;;;;1999.90;999.90;;;28.90;56.70;;;;;;5079236;28;20040;-75
2023/08/22 09:10:06;;;;;;;1999.90;999.90;;;29.10;58.50;;;;;;5078404;28;20127;-75
2023/08/22 09:12:33;;;;;;;1999.90;999.90;;;28.70;55.00;;;;;;5084038;28;20344;-75
2023/08/22 09:14:59;;;;;;;1999.90;999.90;;;29.00;59.70;;;;;;5084012;28;20371;-76
2023/08/22 09:17:28;;;;;;;1999.90;999.90;;;29.30;54.10;;;;;;5084907;28;20031;-76
2023/08/22 09:19:54;;;;;;;1999.90;999.90;;;29.80;54.90;;;;;;5082702;28;20131;-76
2023/08/22 09:22:27;;;;;;;1999.90;999.90;;;29.70;53.80;;;;;;5086971;28;20103;-76
2023/08/22 09:24:54;;;;;;;1999.90;999.90;;;29.70;54.10;;;;;;5087136;28;20059;-76
2023/08/22 09:27:26;;;;;;;1999.90;999.90;;;29.30;53.90;;;;;;5086219;28;20044;-76
2023/08/22 09:29:52;;;;;;;1999.90;999.90;;;29.60;53.70;;;;;;5084508;28;20034;-77
2023/08/22 09:32:21;;;;;;;1999.90;999.90;;;30.00;55.20;;;;;;5083443;28;20119;-76
2023/08/22 09:34:55;;;;;;;1999.90;999.90;;;30.10;50.10;;;;;;5085902;28;20032;-80
2023/08/22 09:37:30;;;;;;;1999.90;999.90;;;30.10;51.50;;;;;;5083881;28;20035;-79
2023/08/22 09:39:57;;;;;;;1999.90;999.90;;;30.40;49.00;;;;;;5084929;28;20070;-76
2023/08/22 09:42:26;;;;;;;1999.90;999.90;;;30.40;52.90;;;;;;5083353;28;20016;-76
2023/08/22 09:44:54;;;;;;;1999.90;999.90;;;30.70;54.00;;;;;;5077640;28;20040;-76
2023/08/22 09:47:21;;;;;;;1999.90;999.90;;;30.70;52.60;;;;;;5073278;28;20060;-75
2023/08/22 09:49:50;;;;;;;1999.90;999.90;;;30.70;47.50;;;;;;5082646;28;20727;-76
2023/08/22 09:52:16;;;;;;;1999.90;999.90;;;30.80;48.90;;;;;;5080116;28;20502;-76
2023/08/22 09:54:43;;;;;;;1999.90;999.90;;;30.90;47.80;;;;;;5083590;28;20034;-76
2023/08/22 09:57:10;;;;;;;1999.90;999.90;;;30.90;48.80;;;;;;5067553;28;20093;-75
2023/08/22 09:59:37;;;;;;;1999.90;999.90;;;30.80;46.70;;;;;;5082132;28;20024;-75
2023/08/22 10:02:05;;;;;;;1999.90;999.90;;;31.20;52.80;;;;;;5080921;28;20025;-75
2023/08/22 10:04:32;;;;;;;1999.90;999.90;;;31.30;49.60;;;;;;5079327;28;20107;-75
2023/08/22 10:06:57;;;;;;;1999.90;999.90;;;31.50;46.50;;;;;;5082926;28;20040;-75
2023/08/22 10:09:23;;;;;;;1999.90;999.90;;;31.50;46.50;;;;;;5078612;28;20032;-75
2023/08/22 10:11:54;;;;;;;1999.90;999.90;;;31.40;39.40;;;;;;5080552;28;20032;-75
2023/08/22 10:14:30;;;;;;;1999.90;999.90;;;31.50;42.00;;;;;;5074821;28;20034;-75
2023/08/22 10:16:57;;;;;;;1999.90;999.90;;;31.50;45.60;;;;;;5079553;28;20024;-75
2023/08/22 10:19:26;;;;;;;1999.90;999.90;;;31.50;47.00;;;;;;5077145;28;20056;-75
2023/08/22 10:21:55;;;;;;;1999.90;999.90;;;31.70;45.70;;;;;;5077894;28;20039;-75
2023/08/22 10:24:30;;;;;;;1999.90;999.90;;;31.60;47.20;;;;;;5074215;28;20040;-74
2023/08/22 10:27:05;;;;;;;1999.90;999.90;;;31.60;46.10;;;;;;5039275;28;1143850;-74
2023/08/22 10:29:33;;;;;;;1999.90;999.90;;;32.00;45.40;;;;;;5084709;28;20046;-74
2023/08/22 10:32:02;;;;;;;1999.90;999.90;;;31.80;45.40;;;;;;5080126;28;20037;-74
2023/08/22 10:34:54;;;;;;;1999.90;999.90;;;32.20;44.50;;;;;;5083495;28;20772;-74
2023/08/22 10:37:25;;;;;;;1999.90;999.90;;;32.40;43.70;;;;;;5085316;28;20039;-74
2023/08/22 10:39:52;;;;;;;1999.90;999.90;;;32.30;37.90;;;;;;5083652;28;20056;-74
2023/08/22 10:42:19;;;;;;;1999.90;999.90;;;32.20;35.40;;;;;;5081736;28;20081;-74
2023/08/22 10:44:56;;;;;;;1999.90;999.90;;;32.20;36.10;;;;;;5078730;28;20416;-73
2023/08/22 10:47:30;;;;;;;1999.90;999.90;;;32.00;39.10;;;;;;5085238;28;20086;-74
2023/08/22 10:49:59;;;;;;;1999.90;999.90;;;32.30;38.80;;;;;;5076456;28;20041;-74
2023/08/22 10:52:45;;;;;;;1999.90;999.90;;;32.60;35.30;;;;;;5080808;28;20085;-74
2023/08/22 10:55:11;;;;;;;1999.90;999.90;;;33.00;35.50;;;;;;5085150;28;20134;-74
2023/08/22 10:57:47;;;;;;;1999.90;999.90;;;33.50;34.00;;;;;;5089629;28;20560;-74
2023/08/22 11:00:19;;;;;;;1999.90;999.90;;;33.40;34.50;;;;;;5085390;28;20032;-74
2023/08/22 11:02:47;;;;;;;1999.90;999.90;;;33.70;33.20;;;;;;5082596;28;20032;-75
2023/08/22 11:05:14;;;;;;;1999.90;999.90;;;34.00;35.90;;;;;;5082827;28;20158;-74
2023/08/22 11:07:41;;;;;;;1999.90;999.90;;;33.60;33.50;;;;;;5083934;28;20032;-75
2023/08/22 11:10:20;;;;;;;1999.90;999.90;;;34.30;33.20;;;;;;5087438;28;20394;-75
2023/08/22 11:12:46;;;;;;;1999.90;999.90;;;34.50;34.00;;;;;;5089510;28;20061;-75
2023/08/22 11:15:17;;;;;;;1999.90;999.90;;;34.80;32.10;;;;;;5083333;28;20040;-75
2023/08/22 11:17:45;;;;;;;1999.90;999.90;;;33.90;34.60;;;;;;5086373;28;20028;-74
2023/08/22 11:20:13;;;;;;;1999.90;999.90;;;33.60;33.10;;;;;;5089980;28;20028;-75
2023/08/22 11:22:42;;;;;;;1999.90;999.90;;;34.00;31.70;;;;;;5087908;28;20020;-75
2023/08/22 11:25:08;;;;;;;1999.90;999.90;;;34.40;31.70;;;;;;5081569;28;20033;-75
2023/08/22 11:27:40;;;;;;;1999.90;999.90;;;34.70;31.50;;;;;;5083395;28;20052;-75
2023/08/22 11:30:08;;;;;;;1999.90;999.90;;;34.50;32.50;;;;;;5083021;28;20389;-75
2023/08/22 11:32:38;;;;;;;1999.90;999.90;;;34.80;31.60;;;;;;5080377;28;20130;-74
2023/08/22 11:35:10;;;;;;;1999.90;999.90;;;35.60;31.40;;;;;;5086017;28;20056;-74
2023/08/22 11:37:38;;;;;;;1999.90;999.90;;;35.60;30.20;;;;;;5079491;28;20075;-75
2023/08/22 11:40:05;;;;;;;1999.90;999.90;;;35.90;29.80;;;;;;5083904;28;20044;-75
2023/08/22 11:42:33;;;;;;;1999.90;999.90;;;35.70;29.60;;;;;;5081264;28;20021;-75
2023/08/22 11:45:08;;;;;;;1999.90;999.90;;;36.10;29.40;;;;;;5083131;28;20122;-75
2023/08/22 11:47:40;;;;;;;1999.90;999.90;;;36.30;28.70;;;;;;5084711;28;20040;-75
2023/08/22 11:50:10;;;;;;;1999.90;999.90;;;36.90;29.50;;;;;;5083185;28;20032;-74
2023/08/22 11:52:39;;;;;;;1999.90;999.90;;;36.70;29.20;;;;;;5088458;28;20042;-75
2023/08/22 11:55:06;;;;;;;1999.90;999.90;;;36.50;29.30;;;;;;5086622;28;20043;-73
2023/08/22 11:57:34;;;;;;;1999.90;999.90;;;36.70;29.30;;;;;;5088377;28;20035;-76